Airfield :
LOGIN :

Register | Disclaimer

   EN    FR    IT 

 










Legend :    VFR   Marginal VFR   IFR   Intensive IFR   Very Intensive IFR
Visi :
Ceiling :
>= 8 km
>= 3000ft
5 to 8 km
1000 to 3000 ft
1500m to 5 km
500 to 1000 ft
800 to 1500m
200 to 500 ft
< 800m
< 200 ft
Symbols :   Thunderstorms  Fog  Heavy snow  Heavy precipitations  Wind > 20 kt
SIGMETs :     Misc.  Thunderstorms  Icing  Turbulence  Mountain Waves  Volcanic Ashes






- Airport Elevation : 184 ft
- IATA code : BRU


EBBR - Bruxelles

CURRENT METAR :
  • 280420Z 23003KT 9999 BKN035 12/11 Q1008 NOSIG

EXPIRED METARs :
  • 280350Z 24003KT 9999 BKN035 12/11 Q1008 NOSIG
  • 280320Z 21004KT 9999 FEW020 BKN038 12/11 Q1008 NOSIG
  • 280250Z 19003KT 9999 FEW020 BKN040 12/11 Q1008 NOSIG
  • 280220Z 21002KT 9999 FEW020 BKN045 12/11 Q1008 NOSIG
  • 280150Z 18002KT 9999 -RA FEW020 12/11 Q1008 NOSIG

TAF COR TAF EBBR
Valid from the 28 at 00:00 until the 29 at 06:00 UTC


272320Z 2800/2906 VRB03KT 9999 SCT020
BECMG 2803/2805 BKN012
TEMPO 2804/2906 3800 -DZ BKN006
PROB30
TEMPO 2805/2809 2800 RA RADZ BKN004
BECMG 2808/2810 20010KT
PROB30
TEMPO 2818/2905 2800 RA RADZ BKN004
BECMG 2820/2822 29008KT



MET'MAP, your aeronautical weather chart ! - Copyright ORBIFLY December 2007 - Disclaimer

ORBIFLY MET'MAP TEAM :

Programming & Development : Alexandra Zaïnal
Concept & original design : Baudouin d'Aumeries
Assistance for programming : Marc-Olivier Méhu
Technical & hardware support : Manuel Goepfert

Contact : metmap@orbifly.com




SOURCES & CREDITS :

   NOAA